createdAt,value
2022-11-12T00:02:43.314Z,102923.47
2022-11-12T00:05:49.489Z,102915.59
2022-11-12T00:08:54.144Z,102913.00
2022-11-12T00:11:58.234Z,102920.94
2022-11-12T00:15:02.818Z,102917.41
2022-11-12T00:18:07.691Z,102922.69
2022-11-12T00:21:11.873Z,102923.53
2022-11-12T00:24:16.269Z,102920.03
2022-11-12T00:27:20.794Z,102923.59
2022-11-12T00:30:25.305Z,102915.75
2022-11-12T00:33:29.587Z,102916.63
2022-11-12T00:36:34.037Z,102917.56
2022-11-12T00:39:38.474Z,102928.97
2022-11-12T00:42:42.971Z,102927.22
2022-11-12T00:45:47.355Z,102921.06
2022-11-12T00:48:51.546Z,102924.59
2022-11-12T00:51:55.828Z,102909.66
2022-11-12T00:55:00.467Z,102918.44
2022-11-12T00:58:04.943Z,102924.59
2022-11-12T01:01:13.077Z,102928.03
2022-11-12T01:04:17.910Z,102926.28
2022-11-12T01:07:22.145Z,102921.03
2022-11-12T01:10:26.703Z,102921.91
2022-11-12T01:13:31.330Z,102930.72
2022-11-12T01:16:39.066Z,102922.94
2022-11-12T01:19:43.807Z,102927.41
2022-11-12T01:22:48.333Z,102926.63
2022-11-12T01:25:52.861Z,102927.59
2022-11-12T01:28:57.552Z,102928.50
2022-11-12T01:32:01.781Z,102924.16
2022-11-12T01:35:06.838Z,102920.66
2022-11-12T01:38:11.138Z,102909.34
2022-11-12T01:41:21.215Z,102920.00
2022-11-12T01:44:30.413Z,102923.56
2022-11-12T01:47:35.976Z,102934.19
2022-11-12T01:50:41.075Z,102923.72
2022-11-12T01:53:49.688Z,102930.78
2022-11-12T01:56:57.015Z,102921.16
2022-11-12T02:00:08.651Z,102923.00
2022-11-12T02:03:20.387Z,102921.34
2022-11-12T02:06:25.410Z,102926.66
2022-11-12T02:09:31.062Z,102917.94
2022-11-12T02:12:54.417Z,102916.19
2022-11-12T02:15:58.912Z,102918.88
2022-11-12T02:19:04.390Z,102918.88
2022-11-12T02:22:08.682Z,102931.19
2022-11-12T02:25:14.478Z,102920.78
2022-11-12T02:28:18.680Z,102933.06
2022-11-12T02:31:22.998Z,102927.94
2022-11-12T02:34:27.504Z,102933.16
2022-11-12T02:37:31.840Z,102918.25
2022-11-12T02:40:36.607Z,102921.78
2022-11-12T02:43:41.382Z,102929.72
2022-11-12T02:46:45.602Z,102930.59
2022-11-12T02:49:50.173Z,102937.66
2022-11-12T02:52:55.582Z,102934.38
2022-11-12T02:56:01.448Z,102929.28
2022-11-12T02:59:06.011Z,102921.47
2022-11-12T03:02:10.454Z,102910.97
2022-11-12T03:05:15.090Z,102945.06
2022-11-12T03:08:19.747Z,102942.44
2022-11-12T03:11:24.442Z,102961.66
2022-11-12T03:14:28.896Z,102957.34
2022-11-12T03:17:34.670Z,102956.50
2022-11-12T03:20:39.050Z,102948.69
2022-11-12T03:23:43.664Z,102957.47
2022-11-12T03:26:48.025Z,102964.50
2022-11-12T03:29:52.467Z,102971.47
2022-11-12T03:32:56.976Z,102960.13
2022-11-12T03:36:01.503Z,102979.31
2022-11-12T03:39:06.075Z,102963.56
2022-11-12T03:42:10.413Z,102955.72
2022-11-12T03:45:16.158Z,102948.78
2022-11-12T03:48:20.674Z,102968.94
2022-11-12T03:51:24.720Z,102975.06
2022-11-12T03:54:29.173Z,102951.50
2022-11-12T03:57:34.363Z,102947.22
2022-11-12T04:00:39.145Z,102958.59
2022-11-12T04:03:43.325Z,102942.03
2022-11-12T04:07:05.966Z,102951.66
2022-11-12T04:10:10.187Z,102952.50
2022-11-12T04:13:29.758Z,102956.88
2022-11-12T04:16:52.795Z,102942.88
2022-11-12T04:20:15.678Z,102934.16
2022-11-12T04:23:19.795Z,102963.00
2022-11-12T04:26:24.396Z,102956.88
2022-11-12T04:29:46.919Z,102963.84
2022-11-12T04:32:58.429Z,102961.22
2022-11-12T04:36:02.910Z,102966.47
2022-11-12T04:39:07.355Z,102978.69
2022-11-12T04:42:30.304Z,102985.72
2022-11-12T04:45:34.893Z,102973.47
2022-11-12T04:48:39.402Z,102970.00
2022-11-12T04:52:01.871Z,102973.47
2022-11-12T04:55:07.198Z,102971.81
2022-11-12T04:58:11.556Z,102970.09
2022-11-12T05:01:15.924Z,102952.69
2022-11-12T05:04:20.171Z,102943.16
2022-11-12T05:07:24.571Z,102964.19
2022-11-12T05:10:30.905Z,102981.66
2022-11-12T05:13:35.249Z,102965.13
2022-11-12T05:16:40.059Z,102967.78
2022-11-12T05:19:44.735Z,102971.28
2022-11-12T05:23:05.059Z,102975.69
2022-11-12T05:26:10.585Z,102980.09
2022-11-12T05:29:14.898Z,102978.34
2022-11-12T05:32:19.281Z,102971.41
2022-11-12T05:35:23.843Z,102966.22
2022-11-12T05:38:28.477Z,102976.69
2022-11-12T05:41:51.359Z,102985.47
2022-11-12T05:44:57.560Z,103003.81
2022-11-12T05:48:02.179Z,102995.06
2022-11-12T05:51:13.054Z,102975.88
2022-11-12T05:54:31.094Z,102985.50
2022-11-12T05:57:35.529Z,102999.47
2022-11-12T06:00:40.354Z,102992.50
2022-11-12T06:03:44.674Z,103002.06
2022-11-12T06:06:48.833Z,102996.00
2022-11-12T06:09:53.596Z,103001.22
2022-11-12T06:12:58.513Z,102991.66
2022-11-12T06:16:03.495Z,102989.91
2022-11-12T06:19:07.949Z,102983.81
2022-11-12T06:22:13.187Z,102986.44
2022-11-12T06:25:18.195Z,102989.91
2022-11-12T06:28:22.375Z,102996.00
2022-11-12T06:31:26.742Z,102997.75
2022-11-12T06:34:31.211Z,102996.00
2022-11-12T06:37:35.620Z,102992.50
2022-11-12T06:40:40.210Z,103002.97
2022-11-12T06:43:44.624Z,102997.72
2022-11-12T06:46:48.837Z,103002.97
2022-11-12T06:49:53.246Z,102999.44
2022-11-12T06:53:00.771Z,103012.53
2022-11-12T06:56:07.481Z,103009.97
2022-11-12T06:59:12.131Z,103003.84
2022-11-12T07:02:16.632Z,103007.38
2022-11-12T07:05:20.950Z,102997.78
2022-11-12T07:08:25.787Z,103012.59
2022-11-12T07:11:31.051Z,103017.84
2022-11-12T07:14:35.707Z,103013.47
2022-11-12T07:17:39.914Z,103010.00
2022-11-12T07:20:44.120Z,103012.59
2022-11-12T07:23:48.511Z,103023.06
2022-11-12T07:26:53.133Z,103018.69
2022-11-12T07:29:57.975Z,103036.16
2022-11-12T07:33:02.544Z,103042.25
2022-11-12T07:36:10.928Z,103037.91
2022-11-12T07:39:15.015Z,103035.28
2022-11-12T07:42:19.269Z,103037.00
2022-11-12T07:45:23.456Z,103041.38
2022-11-12T07:48:30.145Z,103053.56
2022-11-12T07:51:34.815Z,103042.22
2022-11-12T07:54:39.133Z,103040.47
2022-11-12T07:57:43.308Z,103050.06
2022-11-12T08:00:47.924Z,103043.91
2022-11-12T08:03:52.560Z,103047.41
2022-11-12T08:06:57.247Z,103041.31
2022-11-12T08:10:01.716Z,103058.75
2022-11-12T08:13:05.947Z,103057.00
2022-11-12T08:16:10.338Z,103048.28
2022-11-12T08:19:14.626Z,103045.63
2022-11-12T08:22:19.713Z,103037.75
2022-11-12T08:25:24.498Z,103029.03
2022-11-12T08:28:30.186Z,103036.88
2022-11-12T08:31:34.638Z,103051.69
2022-11-12T08:34:41.364Z,103054.28
2022-11-12T08:37:45.834Z,103042.03
2022-11-12T08:40:50.636Z,103049.00
2022-11-12T08:43:55.149Z,103051.59
2022-11-12T08:46:59.556Z,103040.22
2022-11-12T08:50:03.808Z,103048.94
2022-11-12T08:53:13.576Z,103051.53
2022-11-12T08:56:17.974Z,103048.03
2022-11-12T08:59:22.376Z,103027.00
2022-11-12T09:02:26.759Z,103044.44
2022-11-12T09:05:31.524Z,103061.00
2022-11-12T09:08:38.068Z,103060.13
2022-11-12T09:11:42.997Z,103040.84
2022-11-12T09:14:47.616Z,103055.69
2022-11-12T09:18:01.670Z,103061.75
2022-11-12T09:21:12.524Z,103045.06
2022-11-12T09:24:17.219Z,103050.22
2022-11-12T09:27:21.557Z,103062.44
2022-11-12T09:30:25.838Z,103064.97
2022-11-12T09:33:33.864Z,103056.16
2022-11-12T09:36:39.954Z,103052.56
2022-11-12T09:39:44.700Z,103047.22
2022-11-12T09:42:53.450Z,103050.63
2022-11-12T09:46:35.322Z,103057.53
2022-11-12T09:49:50.246Z,103056.56
2022-11-12T09:53:16.978Z,103066.13
2022-11-12T09:56:23.864Z,103071.28
2022-11-12T09:59:35.280Z,103064.19
2022-11-12T10:03:04.515Z,103081.66
2022-11-12T10:06:19.400Z,103076.31
2022-11-12T10:09:38.134Z,103073.34
2022-11-12T10:13:24.474Z,103094.66
2022-11-12T10:16:43.885Z,103103.19
2022-11-12T10:20:28.970Z,103104.03
2022-11-12T10:23:49.423Z,103094.81
2022-11-12T10:26:56.979Z,103082.72
2022-11-12T10:30:13.488Z,103083.81
2022-11-12T10:33:18.062Z,103075.56
2022-11-12T10:36:33.748Z,103075.31
2022-11-12T10:39:41.882Z,103067.09
2022-11-12T10:42:58.542Z,103054.97
2022-11-12T10:46:24.795Z,103062.41
2022-11-12T10:49:29.274Z,103066.94
2022-11-12T10:52:33.972Z,103062.16
2022-11-12T10:55:59.386Z,103060.63
2022-11-12T10:59:25.413Z,103039.47
2022-11-12T11:02:29.819Z,103035.97
2022-11-12T11:05:48.025Z,103022.53
2022-11-12T11:09:07.843Z,103032.09
2022-11-12T11:12:31.809Z,103022.50
2022-11-12T11:15:36.814Z,103011.25
2022-11-12T11:18:47.702Z,103024.44
2022-11-12T11:22:19.075Z,103031.25
2022-11-12T11:25:28.373Z,103032.75
2022-11-12T11:28:53.515Z,103018.81
2022-11-12T11:32:00.758Z,103011.16
2022-11-12T11:35:44.725Z,103016.59
2022-11-12T11:39:26.748Z,103021.00
2022-11-12T11:42:50.463Z,103034.22
2022-11-12T11:46:32.736Z,103030.50
2022-11-12T11:50:33.751Z,103031.03
2022-11-12T11:53:53.695Z,103038.81
2022-11-12T11:57:02.379Z,103049.34
2022-11-12T12:00:21.257Z,103033.19
2022-11-12T12:04:07.867Z,103026.38
2022-11-12T12:07:36.689Z,103026.38
2022-11-12T12:11:21.087Z,103031.44
2022-11-12T12:14:55.074Z,103006.56
2022-11-12T12:18:54.944Z,103014.94
2022-11-12T12:22:01.348Z,103020.09
2022-11-12T12:25:30.111Z,103010.56
2022-11-12T12:28:55.196Z,103006.75
2022-11-12T12:32:23.082Z,103014.06
2022-11-12T12:35:40.802Z,103008.47
2022-11-12T12:39:47.871Z,103003.13
2022-11-12T12:43:27.472Z,102998.84
2022-11-12T12:46:41.068Z,102984.88
2022-11-12T12:49:48.980Z,102974.66
2022-11-12T12:53:21.976Z,102991.72
2022-11-12T12:56:31.775Z,102991.00
2022-11-12T12:59:37.113Z,102993.03
2022-11-12T13:02:42.242Z,103002.09
2022-11-12T13:06:05.589Z,103010.34
2022-11-12T13:09:15.730Z,103012.19
2022-11-12T13:12:19.798Z,103007.09
2022-11-12T13:15:44.734Z,103013.34
2022-11-12T13:18:51.673Z,103020.19
2022-11-12T13:22:17.791Z,103021.13
2022-11-12T13:25:22.213Z,103023.69
2022-11-12T13:28:26.947Z,103011.69
2022-11-12T13:31:34.097Z,103023.09
2022-11-12T13:34:38.845Z,103019.59
2022-11-12T13:38:01.735Z,103019.66
2022-11-12T13:41:42.515Z,103016.94
2022-11-12T13:44:53.425Z,103017.03
2022-11-12T13:48:00.282Z,103022.34
2022-11-12T13:51:38.378Z,103015.44
2022-11-12T13:54:43.049Z,103020.75
2022-11-12T13:57:57.481Z,103012.00
2022-11-12T14:01:04.351Z,103021.81
2022-11-12T14:04:13.627Z,103020.97
2022-11-12T14:08:01.044Z,103032.44
2022-11-12T14:11:26.997Z,103039.38
2022-11-12T14:14:49.076Z,103034.41
2022-11-12T14:18:09.016Z,103034.41
2022-11-12T14:21:18.190Z,103033.44
2022-11-12T14:24:23.534Z,103030.09
2022-11-12T14:27:33.916Z,103037.19
2022-11-12T14:30:44.773Z,103036.31
2022-11-12T14:33:49.218Z,103029.44
2022-11-12T14:36:57.494Z,103033.97
2022-11-12T14:40:02.004Z,103035.81
2022-11-12T14:43:06.774Z,103037.53
2022-11-12T14:46:39.653Z,103034.97
2022-11-12T14:49:49.008Z,103026.25
2022-11-12T14:53:07.145Z,103032.41
2022-11-12T14:56:48.788Z,103025.41
2022-11-12T14:59:53.609Z,103013.25
2022-11-12T15:03:01.971Z,103004.59
2022-11-12T15:06:06.440Z,103001.16
2022-11-12T15:09:10.773Z,102998.56
2022-11-12T15:12:30.610Z,102997.03
2022-11-12T15:15:49.556Z,102990.19
2022-11-12T15:19:24.465Z,102996.47
2022-11-12T15:22:34.408Z,102995.59
2022-11-12T15:25:38.524Z,102991.31
2022-11-12T15:29:02.775Z,102985.34
2022-11-12T15:32:13.739Z,102974.91
2022-11-12T15:35:30.650Z,102988.13
2022-11-12T15:38:37.836Z,102987.38
2022-11-12T15:41:42.366Z,102990.03
2022-11-12T15:44:47.575Z,102994.38
2022-11-12T15:47:52.810Z,102990.94
2022-11-12T15:50:56.996Z,102995.38
2022-11-12T15:54:01.025Z,102998.03
2022-11-12T15:57:05.548Z,102992.84
2022-11-12T16:00:18.170Z,102998.13
2022-11-12T16:03:23.251Z,103004.34
2022-11-12T16:06:27.733Z,103022.72
2022-11-12T16:09:31.812Z,103024.56
2022-11-12T16:12:36.491Z,103018.50
2022-11-12T16:15:41.080Z,103028.06
2022-11-12T16:18:45.378Z,103014.09
2022-11-12T16:21:49.724Z,103009.81
2022-11-12T16:24:53.961Z,102994.97
2022-11-12T16:27:59.561Z,102991.53
2022-11-12T16:31:03.954Z,102988.97
2022-11-12T16:34:08.346Z,102984.63
2022-11-12T16:37:14.146Z,102976.78
2022-11-12T16:40:25.785Z,102972.53
2022-11-12T16:43:30.342Z,102983.03
2022-11-12T16:46:40.300Z,102987.41
2022-11-12T16:49:44.721Z,102987.53
2022-11-12T16:52:49.673Z,102986.66
2022-11-12T16:55:56.414Z,102995.41
2022-11-12T16:59:00.938Z,102997.16
2022-11-12T17:02:13.956Z,102990.22
2022-11-12T17:05:27.490Z,102986.72
2022-11-12T17:08:34.110Z,102993.69
2022-11-12T17:11:38.947Z,102991.91
2022-11-12T17:14:43.609Z,102984.97
2022-11-12T17:17:48.169Z,102993.69
2022-11-12T17:20:52.711Z,102993.69
2022-11-12T17:23:58.667Z,102989.31
2022-11-12T17:27:03.568Z,102981.53
2022-11-12T17:30:08.466Z,102978.94
2022-11-12T17:33:12.929Z,102974.59
2022-11-12T17:36:21.858Z,102965.91
2022-11-12T17:39:27.329Z,102960.72
2022-11-12T17:42:31.786Z,102955.53
2022-11-12T17:45:36.151Z,102955.53
2022-11-12T17:48:41.253Z,102960.78
2022-11-12T17:51:45.713Z,102958.16
2022-11-12T17:54:49.905Z,102957.25
2022-11-12T17:57:54.528Z,102959.00
2022-11-12T18:01:19.810Z,102948.53
2022-11-12T18:04:26.554Z,102950.22
2022-11-12T18:07:33.142Z,102958.88
2022-11-12T18:10:38.575Z,102961.41
2022-11-12T18:13:43.130Z,102961.38
2022-11-12T18:16:48.347Z,102962.19
2022-11-12T18:19:52.527Z,102956.00
2022-11-12T18:22:56.955Z,102949.06
2022-11-12T18:26:01.383Z,102940.41
2022-11-12T18:29:07.542Z,102939.56
2022-11-12T18:32:13.788Z,102932.56
2022-11-12T18:35:18.888Z,102936.88
2022-11-12T18:38:23.244Z,102920.25
2022-11-12T18:41:30.574Z,102919.31
2022-11-12T18:44:36.795Z,102917.56
2022-11-12T18:47:41.455Z,102914.00
2022-11-12T18:50:46.175Z,102915.72
2022-11-12T18:53:55.532Z,102901.72
2022-11-12T18:57:01.079Z,102899.13
2022-11-12T19:00:06.331Z,102897.44
2022-11-12T19:03:10.854Z,102893.09
2022-11-12T19:06:16.622Z,102892.25
2022-11-12T19:09:21.159Z,102892.41
2022-11-12T19:12:25.446Z,102897.63
2022-11-12T19:15:34.030Z,102894.09
2022-11-12T19:18:40.298Z,102895.81
2022-11-12T19:21:44.736Z,102904.50
2022-11-12T19:24:49.150Z,102893.13
2022-11-12T19:27:53.828Z,102890.41
2022-11-12T19:31:02.659Z,102893.03
2022-11-12T19:34:06.943Z,102904.47
2022-11-12T19:40:35.341Z,102894.03
2022-11-12T19:43:41.552Z,102889.69
2022-11-12T19:46:45.668Z,102896.66
2022-11-12T19:49:50.084Z,102887.94
2022-11-12T19:52:54.870Z,102883.59
2022-11-12T19:56:04.825Z,102882.72
2022-11-12T19:59:10.057Z,102878.34
2022-11-12T20:02:15.007Z,102887.09
2022-11-12T20:05:19.343Z,102875.78
2022-11-12T20:08:26.970Z,102882.78
2022-11-12T20:11:31.627Z,102887.22
2022-11-12T20:14:36.205Z,102884.69
2022-11-12T20:17:40.870Z,102879.59
2022-11-12T20:20:57.160Z,102880.50
2022-11-12T20:24:01.801Z,102885.81
2022-11-12T20:27:07.706Z,102875.38
2022-11-12T20:30:12.819Z,102876.28
2022-11-12T20:33:17.304Z,102865.91
2022-11-12T20:36:23.123Z,102878.19
2022-11-12T20:39:27.729Z,102873.88
2022-11-12T20:42:32.047Z,102868.63
2022-11-12T20:45:36.477Z,102860.84
2022-11-12T20:48:43.607Z,102873.94
2022-11-12T20:51:49.053Z,102879.19
2022-11-12T20:54:53.574Z,102879.19
2022-11-12T20:57:57.995Z,102882.66
2022-11-12T21:01:04.177Z,102877.44
2022-11-12T21:04:12.318Z,102867.03
2022-11-12T21:07:16.632Z,102867.06
2022-11-12T21:10:21.439Z,102868.84
2022-11-12T21:13:27.957Z,102865.34
2022-11-12T21:16:32.506Z,102869.72
2022-11-12T21:19:37.342Z,102870.63
2022-11-12T21:22:41.517Z,102875.88
2022-11-12T21:25:46.322Z,102875.88
2022-11-12T21:28:53.982Z,102881.09
2022-11-12T21:31:58.620Z,102877.63
2022-11-12T21:35:03.057Z,102873.28
2022-11-12T21:38:07.448Z,102862.81
2022-11-12T21:41:19.053Z,102858.44
2022-11-12T21:44:24.128Z,102870.66
2022-11-12T21:47:29.005Z,102872.41
2022-11-12T21:50:33.558Z,102868.91
2022-11-12T21:53:40.777Z,102882.84
2022-11-12T21:56:46.069Z,102867.13
2022-11-12T21:59:50.501Z,102875.00
2022-11-12T22:02:58.034Z,102875.88
2022-11-12T22:06:04.816Z,102876.72
2022-11-12T22:09:09.062Z,102883.72
2022-11-12T22:12:13.843Z,102877.63
2022-11-12T22:15:24.004Z,102869.81
2022-11-12T22:18:29.460Z,102861.97
2022-11-12T22:21:40.040Z,102855.91
2022-11-12T22:24:44.679Z,102855.06
2022-11-12T22:27:49.622Z,102859.44
2022-11-12T22:30:55.006Z,102853.34
2022-11-12T22:34:02.173Z,102850.72
2022-11-12T22:37:06.588Z,102855.06
2022-11-12T22:40:13.724Z,102859.44
2022-11-12T22:43:18.619Z,102868.13
2022-11-12T22:46:26.538Z,102875.09
2022-11-12T22:49:31.453Z,102874.25
2022-11-12T22:52:36.367Z,102881.19
2022-11-12T22:55:41.044Z,102878.56
2022-11-12T22:58:47.173Z,102885.56
2022-11-12T23:01:51.644Z,102881.22
2022-11-12T23:04:56.304Z,102882.94
2022-11-12T23:08:00.958Z,102882.09
2022-11-12T23:11:09.494Z,102883.84
2022-11-12T23:14:13.867Z,102884.69
2022-11-12T23:17:17.782Z,102893.41
2022-11-12T23:20:22.275Z,102891.66
2022-11-12T23:23:26.539Z,102880.34
2022-11-12T23:26:31.263Z,102885.56
2022-11-12T23:29:35.982Z,102883.84
2022-11-12T23:32:40.210Z,102876.03
2022-11-12T23:35:44.540Z,102864.69
2022-11-12T23:38:53.165Z,102866.44
2022-11-12T23:42:05.495Z,102866.44
2022-11-12T23:45:10.731Z,102873.41
2022-11-12T23:48:14.813Z,102875.16
2022-11-12T23:51:21.115Z,102867.31
2022-11-12T23:54:25.342Z,102867.28
2022-11-12T23:57:30.105Z,102862.06
